createdAt,value
2016-10-21T00:00:21.152Z,2.97
2016-10-21T00:01:21.155Z,2.94
2016-10-21T00:02:21.168Z,2.9
2016-10-21T00:03:21.147Z,2.91
2016-10-21T00:04:20.851Z,2.87
2016-10-21T00:05:20.905Z,2.91
2016-10-21T00:06:21.184Z,2.91
2016-10-21T00:07:20.881Z,2.91
2016-10-21T00:08:20.909Z,2.93
2016-10-21T00:09:21.222Z,2.95
2016-10-21T00:10:21.242Z,3.03
2016-10-21T00:11:21.245Z,2.95
2016-10-21T00:12:21.394Z,2.98
2016-10-21T00:13:21.283Z,2.95
2016-10-21T00:14:21.405Z,2.97
2016-10-21T00:15:21.307Z,3.06
2016-10-21T00:16:21.398Z,3.01
2016-10-21T00:17:21.333Z,3.03
2016-10-21T00:18:21.369Z,3.11
2016-10-21T00:19:21.372Z,3.11
2016-10-21T00:20:21.374Z,3.09
2016-10-21T00:21:21.076Z,3.12
2016-10-21T00:22:21.101Z,3.21
2016-10-21T00:23:21.419Z,3.24
2016-10-21T00:24:21.438Z,3.29
2016-10-21T00:25:21.137Z,3.4
2016-10-21T00:26:21.502Z,3.36
2016-10-21T00:27:21.487Z,3.43
2016-10-21T00:28:21.499Z,3.43
2016-10-21T00:29:21.206Z,3.46
2016-10-21T00:30:21.579Z,3.5
2016-10-21T00:31:21.571Z,3.55
2016-10-21T00:32:21.550Z,3.58
2016-10-21T00:33:21.577Z,3.63
2016-10-21T00:34:21.590Z,3.68
2016-10-21T00:35:21.598Z,3.61
2016-10-21T00:36:21.608Z,3.67
2016-10-21T00:37:21.632Z,3.76
2016-10-21T00:38:21.639Z,3.77
2016-10-21T00:39:21.347Z,3.76
2016-10-21T00:40:21.665Z,3.86
2016-10-21T00:41:21.719Z,4
2016-10-21T00:42:21.702Z,4.04
2016-10-21T00:43:21.413Z,4.03
2016-10-21T00:44:21.428Z,4.09
2016-10-21T00:45:21.445Z,4.02
2016-10-21T00:46:21.779Z,4.13
2016-10-21T00:47:21.769Z,4.28
2016-10-21T00:48:21.168Z,4.2
2016-10-21T00:49:21.483Z,4.24
2016-10-21T00:50:21.818Z,4.18
2016-10-21T00:51:21.838Z,4.28
2016-10-21T00:52:21.542Z,4.36
2016-10-21T00:53:21.864Z,4.39
2016-10-21T00:54:21.880Z,4.42
2016-10-21T00:55:21.901Z,4.43
2016-10-21T00:56:21.907Z,4.36
2016-10-21T00:57:21.921Z,4.43
2016-10-21T00:58:21.936Z,4.5
2016-10-21T00:59:22.023Z,4.48
2016-10-21T01:00:21.648Z,4.46
2016-10-21T01:01:21.979Z,4.53
2016-10-21T01:02:21.992Z,4.52
2016-10-21T01:03:21.696Z,4.48
2016-10-21T01:04:22.042Z,4.5
2016-10-21T01:05:22.037Z,4.56
2016-10-21T01:06:22.069Z,4.53
2016-10-21T01:07:22.069Z,4.57
2016-10-21T01:08:22.088Z,4.49
2016-10-21T01:09:21.788Z,4.6
2016-10-21T01:10:22.122Z,4.57
2016-10-21T01:11:22.134Z,4.61
2016-10-21T01:12:22.149Z,4.63
2016-10-21T01:13:21.853Z,4.61
2016-10-21T01:14:21.862Z,4.61
2016-10-21T01:15:21.880Z,4.64
2016-10-21T01:16:22.282Z,4.6
2016-10-21T01:17:22.226Z,4.64
2016-10-21T01:18:22.250Z,4.63
2016-10-21T01:19:22.236Z,4.66
2016-10-21T01:20:22.259Z,4.58
2016-10-21T01:21:22.279Z,4.6
2016-10-21T01:22:22.301Z,4.53
2016-10-21T01:23:22.013Z,4.49
2016-10-21T01:24:22.337Z,4.5
2016-10-21T01:25:22.362Z,4.5
2016-10-21T01:26:22.447Z,4.38
2016-10-21T01:27:22.406Z,4.4
2016-10-21T01:28:22.489Z,4.3
2016-10-21T01:29:22.091Z,4.42
2016-10-21T01:30:22.418Z,4.38
2016-10-21T01:31:22.119Z,4.39
2016-10-21T01:32:22.450Z,4.31
2016-10-21T01:33:22.159Z,4.24
2016-10-21T01:34:22.480Z,4.28
2016-10-21T01:35:22.487Z,4.22
2016-10-21T01:36:22.189Z,4.13
2016-10-21T01:37:22.530Z,4.09
2016-10-21T01:38:22.542Z,4.06
2016-10-21T01:39:22.379Z,4.07
2016-10-21T01:40:22.271Z,4.06
2016-10-21T01:41:22.481Z,4.06
2016-10-21T01:42:22.278Z,4.03
2016-10-21T01:43:22.660Z,4.16
2016-10-21T01:44:22.309Z,4.1
2016-10-21T01:45:22.637Z,4.12
2016-10-21T01:46:22.660Z,4.13
2016-10-21T01:47:22.712Z,4.28
2016-10-21T01:48:22.380Z,4.21
2016-10-21T01:49:22.414Z,4.27
2016-10-21T01:50:22.729Z,4.34
2016-10-21T01:51:22.748Z,4.38
2016-10-21T01:52:22.495Z,4.32
2016-10-21T01:53:22.457Z,4.38
2016-10-21T01:54:22.518Z,4.39
2016-10-21T01:55:22.852Z,4.46
2016-10-21T01:56:22.870Z,4.39
2016-10-21T01:57:22.829Z,4.39
2016-10-21T01:58:22.839Z,4.39
2016-10-21T01:59:22.921Z,4.42
2016-10-21T02:00:22.870Z,4.45
2016-10-21T02:01:22.876Z,4.4
2016-10-21T02:02:22.582Z,4.46
2016-10-21T02:03:22.908Z,4.49
2016-10-21T02:04:22.948Z,4.49
2016-10-21T02:05:22.683Z,4.52
2016-10-21T02:06:22.969Z,4.49
2016-10-21T02:07:22.976Z,4.58
2016-10-21T02:08:23.151Z,4.61
2016-10-21T02:09:22.710Z,4.64
2016-10-21T02:10:23.109Z,4.61
2016-10-21T02:11:23.088Z,4.64
2016-10-21T02:12:23.070Z,4.67
2016-10-21T02:13:23.069Z,4.61
2016-10-21T02:14:23.086Z,4.71
2016-10-21T02:15:23.132Z,4.76
2016-10-21T02:16:23.112Z,4.71
2016-10-21T02:17:23.122Z,4.86
2016-10-21T02:18:23.142Z,4.83
2016-10-21T02:19:23.161Z,4.87
2016-10-21T02:20:23.179Z,4.87
2016-10-21T02:21:23.207Z,4.97
2016-10-21T02:22:22.595Z,4.9
2016-10-21T02:23:23.304Z,4.95
2016-10-21T02:24:23.242Z,4.95
2016-10-21T02:25:23.355Z,4.87
2016-10-21T02:26:23.270Z,4.9
2016-10-21T02:27:23.289Z,4.89
2016-10-21T02:28:23.294Z,4.95
2016-10-21T02:29:22.995Z,4.94
2016-10-21T02:30:23.321Z,5.01
2016-10-21T02:31:23.328Z,4.86
2016-10-21T02:32:23.356Z,4.97
2016-10-21T02:33:23.364Z,4.89
2016-10-21T02:34:23.089Z,5.02
2016-10-21T02:35:23.098Z,5
2016-10-21T02:36:23.419Z,5.01
2016-10-21T02:37:23.433Z,5.1
2016-10-21T02:38:23.200Z,5.01
2016-10-21T02:39:23.459Z,5.08
2016-10-21T02:40:23.484Z,5.02
2016-10-21T02:41:23.492Z,5.1
2016-10-21T02:42:23.497Z,5.18
2016-10-21T02:43:23.544Z,5.16
2016-10-21T02:44:23.542Z,5.2
2016-10-21T02:45:23.545Z,5.22
2016-10-21T02:46:23.577Z,5.23
2016-10-21T02:47:23.590Z,5.25
2016-10-21T02:48:23.608Z,5.25
2016-10-21T02:49:23.619Z,5.38
2016-10-21T02:50:23.631Z,5.36
2016-10-21T02:51:23.651Z,5.41
2016-10-21T02:52:23.670Z,5.46
2016-10-21T02:53:23.722Z,5.37
2016-10-21T02:54:23.390Z,5.43
2016-10-21T02:55:23.723Z,5.36
2016-10-21T02:56:23.729Z,5.47
2016-10-21T02:57:23.435Z,5.38
2016-10-21T02:58:23.449Z,5.44
2016-10-21T02:59:23.781Z,5.43
2016-10-21T03:00:23.794Z,5.56
2016-10-21T03:01:23.555Z,5.58
2016-10-21T03:02:23.832Z,5.54
2016-10-21T03:03:23.840Z,5.61
2016-10-21T03:04:23.537Z,5.64
2016-10-21T03:05:23.561Z,5.7
2016-10-21T03:06:23.590Z,5.72
2016-10-21T03:07:23.899Z,5.76
2016-10-21T03:08:23.920Z,5.79
2016-10-21T03:09:23.936Z,5.81
2016-10-21T03:10:23.953Z,5.88
2016-10-21T03:11:23.960Z,5.87
2016-10-21T03:12:23.989Z,5.91
2016-10-21T03:13:23.998Z,5.9
2016-10-21T03:14:24.008Z,5.97
2016-10-21T03:15:24.039Z,5.94
2016-10-21T03:16:23.785Z,6.02
2016-10-21T03:17:24.051Z,5.95
2016-10-21T03:18:23.759Z,6.01
2016-10-21T03:19:23.779Z,5.99
2016-10-21T03:20:24.109Z,6.01
2016-10-21T03:21:23.817Z,6.05
2016-10-21T03:22:24.130Z,6.06
2016-10-21T03:23:24.163Z,6.09
2016-10-21T03:24:23.849Z,6.16
2016-10-21T03:25:23.878Z,6.19
2016-10-21T03:26:24.217Z,6.19
2016-10-21T03:27:24.229Z,6.28
2016-10-21T03:28:23.913Z,6.26
2016-10-21T03:29:24.251Z,6.34
2016-10-21T03:30:24.267Z,6.39
2016-10-21T03:31:24.318Z,6.36
2016-10-21T03:32:24.319Z,6.5
2016-10-21T03:33:24.440Z,6.49
2016-10-21T03:34:24.433Z,6.54
2016-10-21T03:35:24.358Z,6.62
2016-10-21T03:36:23.747Z,6.65
2016-10-21T03:37:24.373Z,6.6
2016-10-21T03:38:24.089Z,6.62
2016-10-21T03:39:24.106Z,6.62
2016-10-21T03:40:24.115Z,6.62
2016-10-21T03:41:24.131Z,6.72
2016-10-21T03:42:24.160Z,6.77
2016-10-21T03:43:24.474Z,6.68
2016-10-21T03:44:24.499Z,6.68
2016-10-21T03:45:24.510Z,6.8
2016-10-21T03:46:24.296Z,6.77
2016-10-21T03:47:24.227Z,6.8
2016-10-21T03:48:24.637Z,6.72
2016-10-21T03:49:24.294Z,6.8
2016-10-21T03:50:24.610Z,6.72
2016-10-21T03:51:24.289Z,6.7
2016-10-21T03:52:24.628Z,6.67
2016-10-21T03:53:24.659Z,6.67
2016-10-21T03:54:24.657Z,6.75
2016-10-21T03:55:24.679Z,6.68
2016-10-21T03:56:24.698Z,6.7
2016-10-21T03:57:24.490Z,6.75
2016-10-21T03:58:24.407Z,6.78
2016-10-21T03:59:24.797Z,6.65
2016-10-21T04:00:24.133Z,6.7
2016-10-21T04:01:24.506Z,6.67
2016-10-21T04:02:24.821Z,6.8
2016-10-21T04:03:24.498Z,6.75
2016-10-21T04:04:24.869Z,6.74
2016-10-21T04:05:24.928Z,6.75
2016-10-21T04:06:24.868Z,6.74
2016-10-21T04:07:24.869Z,6.82
2016-10-21T04:08:24.892Z,6.85
2016-10-21T04:09:24.896Z,6.86
2016-10-21T04:10:24.942Z,6.92
2016-10-21T04:11:24.950Z,6.83
2016-10-21T04:12:24.765Z,6.87
2016-10-21T04:13:25.098Z,6.93
2016-10-21T04:14:25.008Z,6.93
2016-10-21T04:15:25.099Z,6.89
2016-10-21T04:16:25.128Z,6.87
2016-10-21T04:17:24.747Z,6.89
2016-10-21T04:18:24.443Z,6.87
2016-10-21T04:19:24.767Z,6.87
2016-10-21T04:20:24.842Z,6.86
2016-10-21T04:21:25.099Z,6.85
2016-10-21T04:22:25.128Z,6.85
2016-10-21T04:23:25.129Z,6.85
2016-10-21T04:24:24.998Z,6.89
2016-10-21T04:25:24.849Z,6.82
2016-10-21T04:26:25.339Z,6.78
2016-10-21T04:27:25.218Z,6.77
2016-10-21T04:28:25.314Z,6.77
2016-10-21T04:29:25.259Z,6.8
2016-10-21T04:30:25.009Z,6.75
2016-10-21T04:31:25.263Z,6.78
2016-10-21T04:32:25.282Z,6.87
2016-10-21T04:33:25.295Z,6.93
2016-10-21T04:34:25.317Z,6.89
2016-10-21T04:35:25.329Z,7
2016-10-21T04:36:25.350Z,7.03
2016-10-21T04:37:25.368Z,6.96
2016-10-21T04:38:25.378Z,7.05
2016-10-21T04:39:25.107Z,7.04
2016-10-21T04:40:25.146Z,7.03
2016-10-21T04:41:25.216Z,7.1
2016-10-21T04:42:25.440Z,7.28
2016-10-21T04:43:25.477Z,7.15
2016-10-21T04:44:25.176Z,7.22
2016-10-21T04:45:25.557Z,7.28
2016-10-21T04:46:25.212Z,7.15
2016-10-21T04:47:25.528Z,7.23
2016-10-21T04:48:25.229Z,7.31
2016-10-21T04:49:25.559Z,7.29
2016-10-21T04:50:25.588Z,7.26
2016-10-21T04:51:25.616Z,7.32
2016-10-21T04:52:25.316Z,7.39
2016-10-21T04:53:25.309Z,7.32
2016-10-21T04:54:25.666Z,7.25
2016-10-21T04:55:25.350Z,7.37
2016-10-21T04:56:25.687Z,7.36
2016-10-21T04:57:25.706Z,7.36
2016-10-21T04:58:25.426Z,7.39
2016-10-21T04:59:25.724Z,7.43
2016-10-21T05:00:25.440Z,7.47
2016-10-21T05:01:25.762Z,7.41
2016-10-21T05:02:25.770Z,7.5
2016-10-21T05:03:25.795Z,7.43
2016-10-21T05:04:25.830Z,7.48
2016-10-21T05:05:25.839Z,7.48
2016-10-21T05:06:25.531Z,7.51
2016-10-21T05:07:25.867Z,7.47
2016-10-21T05:08:25.619Z,7.53
2016-10-21T05:09:25.972Z,7.61
2016-10-21T05:10:25.605Z,7.55
2016-10-21T05:11:25.935Z,7.55
2016-10-21T05:12:25.938Z,7.5
2016-10-21T05:13:25.990Z,7.5
2016-10-21T05:14:25.974Z,7.59
2016-10-21T05:15:25.997Z,7.67
2016-10-21T05:16:32.269Z,7.69
2016-10-21T05:17:26.025Z,7.67
2016-10-21T05:18:26.047Z,7.66
2016-10-21T05:19:26.065Z,7.69
2016-10-21T05:20:26.099Z,7.69
2016-10-21T05:21:26.105Z,7.75
2016-10-21T05:22:25.818Z,7.7
2016-10-21T05:23:26.137Z,7.7
2016-10-21T05:24:25.529Z,7.59
2016-10-21T05:25:26.168Z,7.81
2016-10-21T05:26:26.203Z,7.72
2016-10-21T05:27:26.196Z,7.74
2016-10-21T05:28:25.898Z,7.7
2016-10-21T05:29:26.236Z,7.78
2016-10-21T05:30:26.275Z,7.74
2016-10-21T05:31:25.649Z,7.75
2016-10-21T05:32:26.283Z,7.77
2016-10-21T05:33:25.994Z,7.77
2016-10-21T05:34:26.743Z,7.77
2016-10-21T05:35:26.579Z,7.72
2016-10-21T05:36:26.708Z,7.72
2016-10-21T05:37:26.264Z,7.74
2016-10-21T05:38:26.750Z,7.85
2016-10-21T05:39:26.094Z,7.83
2016-10-21T05:40:26.701Z,7.87
2016-10-21T05:41:26.590Z,7.88
2016-10-21T05:42:26.609Z,7.84
2016-10-21T05:43:26.619Z,7.87
2016-10-21T05:44:26.643Z,7.96
2016-10-21T05:45:26.259Z,7.87
2016-10-21T05:46:26.624Z,7.93
2016-10-21T05:47:26.219Z,7.93
2016-10-21T05:48:26.250Z,7.95
2016-10-21T05:49:26.849Z,7.87
2016-10-21T05:50:26.674Z,7.84
2016-10-21T05:51:26.488Z,7.9
2016-10-21T05:52:26.679Z,7.96
2016-10-21T05:53:26.323Z,7.85
2016-10-21T05:54:26.346Z,7.95
2016-10-21T05:55:26.659Z,8.01
2016-10-21T05:56:26.378Z,8.06
2016-10-21T05:57:26.528Z,8.05
2016-10-21T05:58:26.429Z,8.06
2016-10-21T05:59:26.238Z,8.06
2016-10-21T06:00:26.484Z,8.06
2016-10-21T06:01:26.493Z,8.02
2016-10-21T06:02:26.489Z,8.03
2016-10-21T06:03:26.679Z,8.03
2016-10-21T06:04:26.811Z,8.11
2016-10-21T06:05:26.627Z,8.08
2016-10-21T06:06:26.801Z,8.17
2016-10-21T06:07:26.614Z,8.11
2016-10-21T06:08:26.592Z,8.11
2016-10-21T06:09:26.297Z,8.06
2016-10-21T06:10:27.138Z,8.08
2016-10-21T06:11:26.681Z,8.14
2016-10-21T06:12:27.188Z,8.17
2016-10-21T06:13:26.671Z,8.16
2016-10-21T06:14:27.147Z,8.11
2016-10-21T06:15:26.833Z,8.16
2016-10-21T06:16:27.186Z,8.17
2016-10-21T06:17:27.062Z,8.13
2016-10-21T06:18:27.099Z,8.17
2016-10-21T06:19:26.943Z,8.16
2016-10-21T06:20:27.108Z,8.18
2016-10-21T06:21:27.113Z,8.14
2016-10-21T06:22:27.132Z,8.21
2016-10-21T06:23:27.183Z,8.23
2016-10-21T06:24:26.862Z,8.24
2016-10-21T06:25:27.184Z,8.23
2016-10-21T06:26:27.250Z,8.17
2016-10-21T06:27:27.276Z,8.21
2016-10-21T06:28:27.231Z,8.23
2016-10-21T06:29:27.260Z,8.23
2016-10-21T06:30:27.279Z,8.21
2016-10-21T06:31:27.313Z,8.34
2016-10-21T06:32:27.344Z,8.32
2016-10-21T06:33:27.509Z,8.35
2016-10-21T06:34:27.339Z,8.34
2016-10-21T06:35:27.498Z,8.38
2016-10-21T06:36:27.407Z,8.34
2016-10-21T06:37:27.404Z,8.39
2016-10-21T06:38:27.409Z,8.36
2016-10-21T06:39:27.428Z,8.41
2016-10-21T06:40:27.459Z,8.44
2016-10-21T06:41:27.451Z,8.34
2016-10-21T06:42:27.489Z,8.44
2016-10-21T06:43:27.500Z,8.41
2016-10-21T06:44:27.331Z,8.44
2016-10-21T06:45:27.527Z,8.41
2016-10-21T06:46:27.586Z,8.41
2016-10-21T06:47:27.568Z,8.5
2016-10-21T06:48:27.673Z,8.52
2016-10-21T06:49:27.603Z,8.46
2016-10-21T06:50:27.619Z,8.42
2016-10-21T06:51:27.635Z,8.52
2016-10-21T06:52:27.648Z,8.44
2016-10-21T06:53:27.669Z,8.28
2016-10-21T06:54:27.691Z,8.31
2016-10-21T06:55:27.709Z,8.39
2016-10-21T06:56:27.720Z,8.34
2016-10-21T06:57:27.747Z,8.38
2016-10-21T06:58:27.764Z,8.34
2016-10-21T06:59:27.795Z,8.28
2016-10-21T07:00:27.785Z,8.45
2016-10-21T07:01:27.547Z,8.45
2016-10-21T07:02:27.863Z,8.39
2016-10-21T07:03:27.838Z,8.36
2016-10-21T07:04:27.857Z,8.42
2016-10-21T07:05:27.878Z,8.49
2016-10-21T07:06:27.881Z,8.5
2016-10-21T07:07:27.894Z,8.56
2016-10-21T07:08:27.929Z,8.56
2016-10-21T07:09:27.941Z,8.59
2016-10-21T07:10:27.960Z,8.57
2016-10-21T07:11:27.982Z,8.63
2016-10-21T07:12:27.992Z,8.71
2016-10-21T07:13:27.705Z,8.68
2016-10-21T07:14:28.043Z,8.71
2016-10-21T07:15:28.058Z,8.71
2016-10-21T07:16:28.064Z,8.68
2016-10-21T07:17:28.126Z,8.72
2016-10-21T07:18:28.091Z,8.69
2016-10-21T07:19:27.810Z,8.78
2016-10-21T07:20:28.139Z,8.75
2016-10-21T07:21:28.152Z,8.79
2016-10-21T07:22:27.869Z,8.82
2016-10-21T07:23:28.189Z,8.84
2016-10-21T07:24:28.216Z,8.78
2016-10-21T07:25:28.223Z,8.86
2016-10-21T07:26:28.236Z,8.92
2016-10-21T07:27:28.368Z,8.92
2016-10-21T07:28:28.268Z,8.96
2016-10-21T07:29:28.310Z,9.02
2016-10-21T07:30:27.987Z,9.02
2016-10-21T07:31:28.337Z,9.03
2016-10-21T07:32:28.339Z,8.97
2016-10-21T07:33:28.416Z,9
2016-10-21T07:34:28.377Z,9.19
2016-10-21T07:35:28.404Z,9.16
2016-10-21T07:36:28.414Z,9.26
2016-10-21T07:37:28.531Z,9.26
2016-10-21T07:38:28.147Z,9.27
2016-10-21T07:39:28.483Z,9.45
2016-10-21T07:40:28.481Z,9.45
2016-10-21T07:41:28.219Z,9.4
2016-10-21T07:42:28.512Z,9.55
2016-10-21T07:43:28.531Z,9.58
2016-10-21T07:44:28.553Z,9.64
2016-10-21T07:45:28.592Z,9.73
2016-10-21T07:46:28.363Z,9.74
2016-10-21T07:47:28.606Z,9.67
2016-10-21T07:48:28.628Z,9.74
2016-10-21T07:49:28.675Z,9.74
2016-10-21T07:50:28.793Z,9.76
2016-10-21T07:51:28.769Z,9.7
2016-10-21T07:52:28.398Z,9.69
2016-10-21T07:53:28.444Z,9.67
2016-10-21T07:54:28.417Z,9.7
2016-10-21T07:55:28.758Z,9.72
2016-10-21T07:56:28.817Z,9.72
2016-10-21T07:57:28.476Z,9.76
2016-10-21T07:58:28.808Z,9.77
2016-10-21T07:59:28.516Z,9.7
2016-10-21T08:00:28.539Z,9.8
2016-10-21T08:01:29.188Z,9.8
2016-10-21T08:02:28.574Z,9.85
2016-10-21T08:03:29.027Z,9.97
2016-10-21T08:04:28.619Z,9.91
2016-10-21T08:05:28.629Z,10.05
2016-10-21T08:06:28.958Z,10.07
2016-10-21T08:07:29.096Z,10.18
2016-10-21T08:08:28.679Z,10.18
2016-10-21T08:09:29.009Z,10.33
2016-10-21T08:10:29.032Z,10.38
2016-10-21T08:11:29.052Z,10.43
2016-10-21T08:12:29.076Z,10.39
2016-10-21T08:13:29.065Z,10.48
2016-10-21T08:14:29.102Z,10.51
2016-10-21T08:15:29.137Z,10.53
2016-10-21T08:16:28.513Z,10.62
2016-10-21T08:17:29.279Z,10.64
2016-10-21T08:18:29.187Z,10.75
2016-10-21T08:19:28.888Z,10.69
2016-10-21T08:20:29.218Z,10.86
2016-10-21T08:21:28.915Z,10.92
2016-10-21T08:22:29.247Z,11.02
2016-10-21T08:23:29.267Z,11.1
2016-10-21T08:24:28.972Z,11.08
2016-10-21T08:25:29.303Z,11.15
2016-10-21T08:26:29.317Z,11.25
2016-10-21T08:27:29.041Z,11.34
2016-10-21T08:28:29.417Z,11.37
2016-10-21T08:29:29.380Z,11.4
2016-10-21T08:30:29.497Z,11.41
2016-10-21T08:31:29.453Z,11.48
2016-10-21T08:32:29.175Z,11.4
2016-10-21T08:33:29.146Z,11.43
2016-10-21T08:34:29.463Z,11.48
2016-10-21T08:35:29.188Z,11.45
2016-10-21T08:36:29.194Z,11.37
2016-10-21T08:37:29.527Z,11.37
2016-10-21T08:38:29.276Z,11.22
2016-10-21T08:39:29.263Z,11.3
2016-10-21T08:40:29.583Z,11.2
2016-10-21T08:41:29.735Z,11.23
2016-10-21T08:42:29.626Z,11.16
2016-10-21T08:43:29.733Z,11.04
2016-10-21T08:44:29.038Z,11.01
2016-10-21T08:45:29.736Z,10.95
2016-10-21T08:46:29.443Z,10.87
2016-10-21T08:47:29.756Z,10.83
2016-10-21T08:48:29.426Z,10.89
2016-10-21T08:49:29.765Z,10.86
2016-10-21T08:50:29.775Z,10.79
2016-10-21T08:51:29.801Z,10.75
2016-10-21T08:52:29.526Z,10.79
2016-10-21T08:53:29.844Z,10.8
2016-10-21T08:54:29.867Z,10.8
2016-10-21T08:55:29.876Z,10.8
2016-10-21T08:56:29.896Z,10.9
2016-10-21T08:57:29.917Z,10.9
2016-10-21T08:58:29.615Z,10.92
2016-10-21T08:59:29.637Z,10.95
2016-10-21T09:00:29.965Z,10.94
2016-10-21T09:01:29.671Z,10.89
2016-10-21T09:02:29.697Z,11.01
2016-10-21T09:03:30.005Z,10.89
2016-10-21T09:04:30.035Z,10.89
2016-10-21T09:05:29.766Z,10.84
2016-10-21T09:06:29.767Z,10.84
2016-10-21T09:07:30.092Z,10.79
2016-10-21T09:08:29.848Z,10.68
2016-10-21T09:09:30.173Z,10.68
2016-10-21T09:10:29.845Z,10.71
2016-10-21T09:11:30.189Z,10.82
2016-10-21T09:12:30.197Z,10.72
2016-10-21T09:13:30.215Z,10.92
2016-10-21T09:14:30.248Z,10.95
2016-10-21T09:15:30.263Z,11.1
2016-10-21T09:16:29.965Z,11.27
2016-10-21T09:17:30.294Z,11.33
2016-10-21T09:18:30.007Z,11.51
2016-10-21T09:19:30.330Z,11.56
2016-10-21T09:20:30.346Z,11.62
2016-10-21T09:21:30.056Z,11.58
2016-10-21T09:22:30.455Z,11.58
2016-10-21T09:23:30.102Z,11.63
2016-10-21T09:24:30.423Z,11.7
2016-10-21T09:25:30.447Z,11.78
2016-10-21T09:26:30.506Z,11.83
2016-10-21T09:27:30.191Z,11.71
2016-10-21T09:28:30.309Z,11.51
2016-10-21T09:29:30.216Z,11.56
2016-10-21T09:30:30.167Z,11.52
2016-10-21T09:31:29.946Z,11.48
2016-10-21T09:32:31.298Z,11.52
2016-10-21T09:33:30.876Z,11.6
2016-10-21T09:34:30.963Z,11.6
2016-10-21T09:35:30.846Z,11.6
2016-10-21T09:36:30.868Z,11.71
2016-10-21T09:37:30.631Z,11.77
2016-10-21T09:38:30.847Z,11.71
2016-10-21T09:39:30.866Z,11.51
2016-10-21T09:40:30.885Z,11.34
2016-10-21T09:41:30.900Z,11.27
2016-10-21T09:42:30.554Z,11.25
2016-10-21T09:43:30.846Z,11.26
2016-10-21T09:44:30.624Z,11.13
2016-10-21T09:45:30.887Z,11.16
2016-10-21T09:46:30.857Z,11.2
2016-10-21T09:47:30.876Z,11.27
2016-10-21T09:48:30.636Z,11.48
2016-10-21T09:49:30.977Z,11.59
2016-10-21T09:50:30.964Z,11.67
2016-10-21T09:51:30.670Z,11.53
2016-10-21T09:52:30.972Z,11.45
2016-10-21T09:53:30.985Z,11.41
2016-10-21T09:54:31.005Z,11.56
2016-10-21T09:55:31.023Z,11.55
2016-10-21T09:56:31.128Z,11.56
2016-10-21T09:57:31.428Z,11.6
2016-10-21T09:58:30.775Z,11.45
2016-10-21T09:59:31.165Z,11.41
2016-10-21T10:00:31.168Z,11.43
2016-10-21T10:01:31.143Z,11.33
2016-10-21T10:02:31.865Z,11.08
2016-10-21T10:03:30.881Z,10.95
2016-10-21T10:04:31.208Z,10.87
2016-10-21T10:05:31.215Z,11.13
2016-10-21T10:06:31.247Z,11.25
2016-10-21T10:07:30.655Z,11.2
2016-10-21T10:08:31.283Z,11.04
2016-10-21T10:09:31.076Z,11
2016-10-21T10:10:31.474Z,11.07
2016-10-21T10:11:31.393Z,10.97
2016-10-21T10:12:31.145Z,10.95
2016-10-21T10:13:31.337Z,11.07
2016-10-21T10:14:31.147Z,10.92
2016-10-21T10:15:31.485Z,11
2016-10-21T10:16:31.436Z,10.95
2016-10-21T10:17:31.486Z,10.9
2016-10-21T10:18:31.727Z,10.94
2016-10-21T10:19:31.537Z,10.9
2016-10-21T10:20:31.221Z,10.84
2016-10-21T10:21:31.542Z,10.98
2016-10-21T10:22:31.552Z,11
2016-10-21T10:23:31.320Z,11.1
2016-10-21T10:24:31.597Z,11.22
2016-10-21T10:25:31.054Z,11.18
2016-10-21T10:26:31.636Z,11.35
2016-10-21T10:27:31.664Z,11.4
2016-10-21T10:28:31.688Z,11.59
2016-10-21T10:29:31.383Z,11.7
2016-10-21T10:30:31.701Z,11.68
2016-10-21T10:31:31.419Z,11.74
2016-10-21T10:32:31.486Z,11.76
2016-10-21T10:33:31.766Z,11.74
2016-10-21T10:34:31.489Z,11.74
2016-10-21T10:35:31.499Z,11.76
2016-10-21T10:36:31.547Z,11.83
2016-10-21T10:37:31.528Z,11.91
2016-10-21T10:38:31.615Z,11.78
2016-10-21T10:39:31.574Z,11.91
2016-10-21T10:40:31.907Z,11.74
2016-10-21T10:41:31.615Z,11.4
2016-10-21T10:42:31.941Z,11.34
2016-10-21T10:43:31.976Z,11.33
2016-10-21T10:44:31.986Z,11.37
2016-10-21T10:45:31.739Z,11.27
2016-10-21T10:46:32.026Z,11.18
2016-10-21T10:47:32.042Z,10.9
2016-10-21T10:48:32.073Z,10.9
2016-10-21T10:49:32.079Z,10.71
2016-10-21T10:50:32.092Z,10.77
2016-10-21T10:51:32.116Z,10.75
2016-10-21T10:52:31.815Z,10.77
2016-10-21T10:53:32.157Z,10.65
2016-10-21T10:54:31.873Z,10.79
2016-10-21T10:55:32.194Z,10.62
2016-10-21T10:56:31.905Z,10.72
2016-10-21T10:57:32.257Z,10.72
2016-10-21T10:58:32.257Z,10.87
2016-10-21T10:59:31.957Z,10.94
2016-10-21T11:00:32.311Z,10.87
2016-10-21T11:01:32.314Z,10.98
2016-10-21T11:02:32.016Z,10.9
2016-10-21T11:03:32.348Z,10.97
2016-10-21T11:04:31.745Z,10.98
2016-10-21T11:05:32.395Z,11.13
2016-10-21T11:06:32.097Z,11.23
2016-10-21T11:07:32.108Z,11.35
2016-10-21T11:08:32.466Z,11.41
2016-10-21T11:09:32.500Z,11.62
2016-10-21T11:10:32.187Z,11.68
2016-10-21T11:11:32.502Z,11.71
2016-10-21T11:12:32.526Z,11.8
2016-10-21T11:13:32.561Z,11.93
2016-10-21T11:15:32.640Z,11.96
2016-10-21T11:16:32.438Z,12.05
2016-10-21T11:17:32.310Z,11.93
2016-10-21T11:18:32.633Z,11.99
2016-10-21T11:19:32.360Z,12.08
2016-10-21T11:20:32.677Z,12
2016-10-21T11:21:32.402Z,12
2016-10-21T11:22:32.454Z,12.03
2016-10-21T11:23:32.456Z,12.08
2016-10-21T11:24:32.756Z,12.15
2016-10-21T11:25:32.799Z,12.17
2016-10-21T11:26:32.837Z,12.26
2016-10-21T11:27:32.897Z,12.21
2016-10-21T11:28:32.533Z,12.21
2016-10-21T11:29:32.869Z,12.28
2016-10-21T11:30:32.287Z,12.08
2016-10-21T11:31:32.590Z,12.08
2016-10-21T11:32:32.597Z,12.03
2016-10-21T11:33:32.979Z,12.02
2016-10-21T11:34:32.950Z,11.97
2016-10-21T11:35:32.962Z,11.96
2016-10-21T11:36:32.996Z,11.86
2016-10-21T11:37:32.707Z,11.8
2016-10-21T11:38:33.028Z,11.81
2016-10-21T11:39:33.156Z,11.67
2016-10-21T11:40:32.756Z,11.53
2016-10-21T11:41:32.942Z,11.53
2016-10-21T11:42:33.146Z,11.43
2016-10-21T11:43:33.146Z,11.41
2016-10-21T11:44:32.835Z,11.34
2016-10-21T11:45:33.181Z,11.33
2016-10-21T11:46:33.178Z,11.26
2016-10-21T11:47:33.191Z,11.19
2016-10-21T11:48:32.912Z,11.27
2016-10-21T11:49:33.248Z,11.22
2016-10-21T11:50:33.255Z,11.12
2016-10-21T11:51:33.423Z,11.05
2016-10-21T11:52:33.444Z,11.05
2016-10-21T11:53:33.070Z,10.97
2016-10-21T11:54:33.128Z,10.92
2016-10-21T11:55:33.361Z,10.87
2016-10-21T11:56:33.087Z,10.84
2016-10-21T11:57:33.391Z,10.79
2016-10-21T11:58:33.425Z,10.82
2016-10-21T11:59:33.438Z,10.65
2016-10-21T12:00:33.468Z,10.65
2016-10-21T12:01:33.531Z,10.67
2016-10-21T12:02:33.504Z,10.75
2016-10-21T12:03:33.534Z,10.76
2016-10-21T12:04:33.559Z,10.71
2016-10-21T12:05:33.552Z,10.84
2016-10-21T12:06:33.571Z,10.89
2016-10-21T12:07:33.649Z,10.92
2016-10-21T12:08:33.621Z,10.97
2016-10-21T12:09:33.638Z,10.92
2016-10-21T12:10:33.640Z,11.07
2016-10-21T12:11:33.659Z,11.12
2016-10-21T12:12:33.695Z,11.22
2016-10-21T12:13:33.778Z,11.23
2016-10-21T12:14:33.733Z,11.27
2016-10-21T12:15:33.763Z,11.18
2016-10-21T12:16:33.764Z,11.31
2016-10-21T12:17:33.787Z,11.34
2016-10-21T12:18:33.591Z,11.4
2016-10-21T12:19:33.829Z,11.52
2016-10-21T12:20:33.904Z,11.48
2016-10-21T12:21:33.555Z,11.4
2016-10-21T12:22:33.604Z,11.41
2016-10-21T12:23:33.578Z,11.44
2016-10-21T12:24:33.623Z,11.41
2016-10-21T12:25:33.640Z,11.53
2016-10-21T12:26:33.979Z,11.49
2016-10-21T12:27:33.977Z,11.4
2016-10-21T12:28:34.009Z,11.43
2016-10-21T12:29:34.028Z,11.53
2016-10-21T12:30:34.028Z,11.59
2016-10-21T12:31:34.054Z,11.56
2016-10-21T12:32:34.078Z,11.59
2016-10-21T12:33:34.126Z,11.53
2016-10-21T12:34:34.108Z,11.55
2016-10-21T12:35:33.836Z,11.62
2016-10-21T12:36:34.160Z,11.6
2016-10-21T12:37:34.170Z,11.59
2016-10-21T12:38:33.902Z,11.62
2016-10-21T12:39:34.208Z,11.65
2016-10-21T12:40:33.920Z,11.74
2016-10-21T12:41:34.261Z,11.77
2016-10-21T12:42:33.961Z,11.89
2016-10-21T12:43:34.294Z,11.95
2016-10-21T12:44:34.411Z,12.03
2016-10-21T12:45:34.320Z,11.95
2016-10-21T12:46:33.711Z,12.03
2016-10-21T12:47:34.360Z,12
2016-10-21T12:48:34.079Z,11.93
2016-10-21T12:49:34.402Z,12.02
2016-10-21T12:50:34.282Z,11.95
2016-10-21T12:51:34.131Z,11.88
2016-10-21T12:52:34.461Z,12.02
2016-10-21T12:53:34.487Z,11.86
2016-10-21T12:54:34.582Z,11.89
2016-10-21T12:55:34.212Z,11.8
2016-10-21T12:56:34.548Z,11.83
2016-10-21T12:57:34.262Z,11.67
2016-10-21T12:58:34.597Z,11.67
2016-10-21T12:59:34.309Z,11.65
2016-10-21T13:00:34.627Z,11.73
2016-10-21T13:01:34.651Z,11.6
2016-10-21T13:02:34.361Z,11.62
2016-10-21T13:03:34.691Z,11.65
2016-10-21T13:04:34.693Z,11.71
2016-10-21T13:05:34.500Z,11.65
2016-10-21T13:06:34.428Z,11.68
2016-10-21T13:07:34.440Z,11.56
2016-10-21T13:08:34.769Z,11.59
2016-10-21T13:09:34.808Z,11.6
2016-10-21T13:10:34.502Z,11.59
2016-10-21T13:11:34.620Z,11.59
2016-10-21T13:12:34.549Z,11.56
2016-10-21T13:13:34.878Z,11.6